Aviation Digital Data Service (ADDS)

Output produced by METARs form (0609 UTC 19 August 2019)
found at http://www.aviationweather.gov/metar/data/
 
Forecast for: WADL (BANDARA , ID)
Text: TAF WADL 190500Z 1906/2006 13015KT 8000 BKN016
Forecast period: 0600 to 1600 UTC 19 August 2019
Forecast type: FROM: standard forecast or significant change
Winds: from the SE (130 degrees) at 17 MPH (15 knots; 7.7 m/s)
Visibility: 5 miles (8 km)
Ceiling: 1600 feet AGL
Clouds: broken clouds at 1600 feet AGL
Weather: no significant weather forecast for this period
Text: BECMG 1916/1918 13005KT
Forecast period: 1600 UTC 19 August 2019 to 0600 UTC 20 August 2019
Forecast type: BECOMING: Conditions expected to become as follows by 1800 UTC 19 August 2019
Winds: from the SE (130 degrees) at 6 MPH (5 knots; 2.6 m/s)
Visibility: 5 miles (8 km)
Ceiling: 1600 feet AGL
Clouds: broken clouds at 1600 feet AGL
Weather: no significant weather forecast for this period
Text: TEMPO 1921/1923 3000 BR
Forecast period: 2100 to 2300 UTC 19 August 2019
Forecast type: TEMPORARY: The following changes expected for less than half the time period
Visibility: 1.86 miles (2.99 km)
Ceiling: unknown
Clouds: missing
Weather: BR  (mist)